Time,TemperatureF,DewpointF,PressureIn,WindDirection,WindDirectionDegrees,WindSpeedMPH,WindSpeedGustMPH,Humidity,HourlyPrecipIn,Conditions,Clouds,dailyrainin,SoftwareType,DateUTC
2013-01-03 00:00:00,32.0,17.0,30.25,NW,320,7.0,8.0,52,-99.99,,,-99.99,,2013-01-03 05:00:00,
2013-01-03 00:12:00,32.0,17.0,30.25,NW,320,7.0,8.0,52,-99.99,,,-99.99,,2013-01-03 05:12:00,
2013-01-03 00:22:00,32.0,17.0,30.25,NW,320,7.0,8.0,52,-99.99,,,-99.99,,2013-01-03 05:22:00,
2013-01-03 00:33:00,32.0,17.0,30.25,NW,320,7.0,8.0,52,-99.99,,,-99.99,,2013-01-03 05:33:00,
2013-01-03 00:42:00,32.0,17.0,30.25,NW,320,7.0,8.0,52,-99.99,,,-99.99,,2013-01-03 05:42:00,
2013-01-03 00:52:00,32.0,17.0,30.25,NW,320,7.0,8.0,52,-99.99,,,-99.99,,2013-01-03 05:52:00,
2013-01-03 01:00:00,32.0,14.0,30.24,NNW,340,11.0,13.0,47,-99.99,,,-99.99,,2013-01-03 06:00:00,
2013-01-03 01:22:00,32.0,14.0,30.24,NNW,340,11.0,13.0,47,-99.99,,,-99.99,,2013-01-03 06:22:00,
2013-01-03 01:32:00,32.0,14.0,30.24,NNW,340,11.0,13.0,47,-99.99,,,-99.99,,2013-01-03 06:32:00,
2013-01-03 01:42:00,32.0,14.0,30.24,NNW,340,11.0,13.0,47,-99.99,,,-99.99,,2013-01-03 06:42:00,
2013-01-03 01:52:00,32.0,14.0,30.24,NNW,340,11.0,13.0,47,-99.99,,,-99.99,,2013-01-03 06:52:00,
2013-01-03 02:00:00,31.0,13.0,30.24,North,350,13.0,14.0,46,-99.99,,,-99.99,,2013-01-03 07:00:00,
2013-01-03 02:11:00,31.0,13.0,30.24,North,350,13.0,14.0,46,-99.99,,,-99.99,,2013-01-03 07:11:00,
2013-01-03 02:22:00,31.0,13.0,30.24,North,350,13.0,14.0,46,-99.99,,,-99.99,,2013-01-03 07:22:00,
2013-01-03 02:32:00,31.0,13.0,30.24,North,350,13.0,14.0,46,-99.99,,,-99.99,,2013-01-03 07:32:00,
2013-01-03 02:42:00,31.0,13.0,30.24,North,350,13.0,14.0,46,-99.99,,,-99.99,,2013-01-03 07:42:00,
2013-01-03 02:52:00,31.0,13.0,30.24,North,350,13.0,14.0,46,-99.99,,,-99.99,,2013-01-03 07:52:00,
2013-01-03 03:00:00,31.0,13.0,30.25,North,350,10.0,13.0,47,-99.99,,,-99.99,,2013-01-03 08:00:00,
2013-01-03 03:21:00,31.0,13.0,30.25,North,350,10.0,13.0,47,-99.99,,,-99.99,,2013-01-03 08:21:00,
2013-01-03 03:32:00,31.0,13.0,30.25,North,350,10.0,13.0,47,-99.99,,,-99.99,,2013-01-03 08:32:00,
2013-01-03 03:42:00,31.0,13.0,30.25,North,350,10.0,13.0,47,-99.99,,,-99.99,,2013-01-03 08:42:00,
2013-01-03 03:52:00,31.0,13.0,30.25,North,350,10.0,13.0,47,-99.99,,,-99.99,,2013-01-03 08:52:00,
2013-01-03 04:00:00,31.0,14.0,30.24,North,360,9.0,10.0,49,-99.99,,,-99.99,,2013-01-03 09:00:00,
2013-01-03 04:11:00,31.0,14.0,30.24,North,360,9.0,10.0,49,-99.99,,,-99.99,,2013-01-03 09:11:00,
2013-01-03 04:22:00,31.0,14.0,30.24,North,360,9.0,10.0,49,-99.99,,,-99.99,,2013-01-03 09:22:00,
2013-01-03 04:32:00,31.0,14.0,30.24,North,360,9.0,10.0,49,-99.99,,,-99.99,,2013-01-03 09:32:00,
2013-01-03 04:42:00,31.0,14.0,30.24,North,360,9.0,10.0,49,-99.99,,,-99.99,,2013-01-03 09:42:00,
2013-01-03 04:52:00,31.0,14.0,30.24,North,360,9.0,10.0,49,-99.99,,,-99.99,,2013-01-03 09:52:00,
2013-01-03 05:00:00,31.0,15.0,30.23,North,360,10.0,11.0,50,-99.99,,,-99.99,,2013-01-03 10:00:00,
2013-01-03 05:11:00,31.0,15.0,30.23,North,360,10.0,11.0,50,-99.99,,,-99.99,,2013-01-03 10:11:00,
2013-01-03 05:22:00,31.0,15.0,30.23,North,360,10.0,11.0,50,-99.99,,,-99.99,,2013-01-03 10:22:00,
2013-01-03 05:32:00,31.0,15.0,30.23,North,360,10.0,11.0,50,-99.99,,,-99.99,,2013-01-03 10:32:00,
2013-01-03 05:42:00,31.0,15.0,30.23,North,360,10.0,11.0,50,-99.99,,,-99.99,,2013-01-03 10:42:00,
2013-01-03 05:52:00,31.0,15.0,30.23,North,360,10.0,11.0,50,-99.99,,,-99.99,,2013-01-03 10:52:00,
2013-01-03 06:00:00,31.0,15.0,30.24,North,360,10.0,11.0,52,-99.99,,,-99.99,,2013-01-03 11:00:00,
2013-01-03 06:11:00,31.0,15.0,30.24,North,360,10.0,11.0,52,-99.99,,,-99.99,,2013-01-03 11:11:00,
2013-01-03 06:22:00,31.0,15.0,30.24,North,360,10.0,11.0,52,-99.99,,,-99.99,,2013-01-03 11:22:00,
2013-01-03 06:32:00,31.0,15.0,30.24,North,360,10.0,11.0,52,-99.99,,,-99.99,,2013-01-03 11:32:00,
2013-01-03 06:42:00,31.0,15.0,30.24,North,360,10.0,11.0,52,-99.99,,,-99.99,,2013-01-03 11:42:00,
2013-01-03 06:52:00,31.0,15.0,30.24,North,360,10.0,11.0,52,-99.99,,,-99.99,,2013-01-03 11:52:00,
2013-01-03 07:00:00,31.0,16.0,30.25,North,360,8.0,9.0,54,-99.99,,,-99.99,,2013-01-03 12:00:00,
2013-01-03 07:12:00,31.0,16.0,30.25,North,360,8.0,9.0,54,-99.99,,,-99.99,,2013-01-03 12:12:00,
2013-01-03 07:22:00,31.0,16.0,30.25,North,360,8.0,9.0,54,-99.99,,,-99.99,,2013-01-03 12:22:00,
2013-01-03 07:32:00,31.0,16.0,30.25,North,360,8.0,9.0,54,-99.99,,,-99.99,,2013-01-03 12:32:00,
2013-01-03 07:42:00,31.0,16.0,30.25,North,360,8.0,9.0,54,-99.99,,,-99.99,,2013-01-03 12:42:00,
2013-01-03 07:52:00,31.0,16.0,30.25,North,360,8.0,9.0,54,-99.99,,,-99.99,,2013-01-03 12:52:00,
2013-01-03 08:00:00,30.0,15.0,30.26,NNE,20,6.0,7.0,51,-99.99,,,-99.99,,2013-01-03 13:00:00,
2013-01-03 08:12:00,30.0,15.0,30.26,NNE,20,6.0,7.0,51,-99.99,,,-99.99,,2013-01-03 13:12:00,
2013-01-03 08:22:00,30.0,15.0,30.26,NNE,20,6.0,7.0,51,-99.99,,,-99.99,,2013-01-03 13:22:00,
2013-01-03 08:32:00,30.0,15.0,30.26,NNE,20,6.0,7.0,51,-99.99,,,-99.99,,2013-01-03 13:32:00,
2013-01-03 08:42:00,30.0,15.0,30.26,NNE,20,6.0,7.0,51,-99.99,,,-99.99,,2013-01-03 13:42:00,
2013-01-03 08:52:00,30.0,15.0,30.26,NNE,20,6.0,7.0,51,-99.99,,,-99.99,,2013-01-03 13:52:00,
2013-01-03 09:00:00,31.0,15.0,30.27,North,360,5.0,6.0,52,-99.99,,,-99.99,,2013-01-03 14:00:00,
2013-01-03 09:22:00,31.0,15.0,30.27,North,360,5.0,6.0,52,-99.99,,,-99.99,,2013-01-03 14:22:00,
2013-01-03 09:32:00,31.0,15.0,30.27,North,360,5.0,6.0,52,-99.99,,,-99.99,,2013-01-03 14:32:00,
2013-01-03 09:42:00,31.0,15.0,30.27,North,360,5.0,6.0,52,-99.99,,,-99.99,,2013-01-03 14:42:00,
2013-01-03 09:53:00,31.0,15.0,30.27,North,360,5.0,6.0,52,-99.99,,,-99.99,,2013-01-03 14:53:00,
2013-01-03 10:00:00,31.0,15.0,30.28,NNE,20,3.0,5.0,52,-99.99,,,-99.99,,2013-01-03 15:00:00,
2013-01-03 10:11:00,31.0,15.0,30.28,NNE,20,3.0,5.0,52,-99.99,,,-99.99,,2013-01-03 15:11:00,
2013-01-03 10:22:00,31.0,15.0,30.28,NNE,20,3.0,5.0,52,-99.99,,,-99.99,,2013-01-03 15:22:00,
2013-01-03 10:32:00,31.0,15.0,30.28,NNE,20,3.0,5.0,52,-99.99,,,-99.99,,2013-01-03 15:32:00,
2013-01-03 10:42:00,31.0,15.0,30.28,NNE,20,3.0,5.0,52,-99.99,,,-99.99,,2013-01-03 15:42:00,
2013-01-03 10:52:00,31.0,15.0,30.28,NNE,20,3.0,5.0,52,-99.99,,,-99.99,,2013-01-03 15:52:00,
2013-01-03 11:00:00,31.0,15.0,30.27,West,260,2.0,3.0,50,-99.99,,,-99.99,,2013-01-03 16:00:00,
2013-01-03 11:11:00,31.0,15.0,30.27,West,260,2.0,3.0,50,-99.99,,,-99.99,,2013-01-03 16:11:00,
2013-01-03 11:22:00,31.0,15.0,30.27,West,260,2.0,3.0,50,-99.99,,,-99.99,,2013-01-03 16:22:00,
2013-01-03 11:32:00,31.0,15.0,30.27,West,260,2.0,3.0,50,-99.99,,,-99.99,,2013-01-03 16:32:00,
2013-01-03 11:42:00,31.0,15.0,30.27,West,260,2.0,3.0,50,-99.99,,,-99.99,,2013-01-03 16:42:00,
2013-01-03 11:52:00,31.0,15.0,30.27,West,260,2.0,3.0,50,-99.99,,,-99.99,,2013-01-03 16:52:00,
2013-01-03 12:00:00,32.0,15.0,30.24,SSW,200,3.0,6.0,48,-99.99,,,-99.99,,2013-01-03 17:00:00,
2013-01-03 12:12:00,32.0,15.0,30.24,SSW,200,3.0,6.0,48,-99.99,,,-99.99,,2013-01-03 17:12:00,
2013-01-03 12:22:00,32.0,15.0,30.24,SSW,200,3.0,6.0,48,-99.99,,,-99.99,,2013-01-03 17:22:00,
2013-01-03 12:32:00,32.0,15.0,30.24,SSW,200,3.0,6.0,48,-99.99,,,-99.99,,2013-01-03 17:32:00,
2013-01-03 12:42:00,32.0,15.0,30.24,SSW,200,3.0,6.0,48,-99.99,,,-99.99,,2013-01-03 17:42:00,
2013-01-03 12:52:00,32.0,15.0,30.24,SSW,200,3.0,6.0,48,-99.99,,,-99.99,,2013-01-03 17:52:00,
2013-01-03 13:00:00,32.0,16.0,30.20,SSW,210,8.0,9.0,50,-99.99,,,-99.99,,2013-01-03 18:00:00,
2013-01-03 13:12:00,32.0,16.0,30.20,SSW,210,8.0,9.0,50,-99.99,,,-99.99,,2013-01-03 18:12:00,
2013-01-03 13:22:00,32.0,16.0,30.20,SSW,210,8.0,9.0,50,-99.99,,,-99.99,,2013-01-03 18:22:00,
2013-01-03 13:32:00,32.0,16.0,30.20,SSW,210,8.0,9.0,50,-99.99,,,-99.99,,2013-01-03 18:32:00,
2013-01-03 13:42:00,32.0,16.0,30.20,SSW,210,8.0,9.0,50,-99.99,,,-99.99,,2013-01-03 18:42:00,
2013-01-03 13:52:00,32.0,16.0,30.20,SSW,210,8.0,9.0,50,-99.99,,,-99.99,,2013-01-03 18:52:00,
2013-01-03 14:00:00,34.0,15.0,30.18,SW,230,7.0,8.0,46,-99.99,,,-99.99,,2013-01-03 19:00:00,
2013-01-03 14:12:00,34.0,15.0,30.18,SW,230,7.0,8.0,46,-99.99,,,-99.99,,2013-01-03 19:12:00,
2013-01-03 14:53:00,34.0,15.0,30.18,SW,230,7.0,8.0,46,-99.99,,,-99.99,,2013-01-03 19:53:00,
2013-01-03 15:00:00,35.0,16.0,30.18,SW,220,10.0,11.0,45,-99.99,,,-99.99,,2013-01-03 20:00:00,
2013-01-03 15:12:00,35.0,16.0,30.18,SW,220,10.0,11.0,45,-99.99,,,-99.99,,2013-01-03 20:12:00,
2013-01-03 15:22:00,35.0,16.0,30.18,SW,220,10.0,11.0,45,-99.99,,,-99.99,,2013-01-03 20:22:00,
2013-01-03 15:32:00,35.0,16.0,30.18,SW,220,10.0,11.0,45,-99.99,,,-99.99,,2013-01-03 20:32:00,
2013-01-03 15:42:00,35.0,16.0,30.18,SW,220,10.0,11.0,45,-99.99,,,-99.99,,2013-01-03 20:42:00,
2013-01-03 15:53:00,35.0,16.0,30.18,SW,220,10.0,11.0,45,-99.99,,,-99.99,,2013-01-03 20:53:00,
2013-01-03 16:00:00,36.0,16.0,30.18,SW,220,10.0,13.0,44,-99.99,,,-99.99,,2013-01-03 21:00:00,
2013-01-03 16:22:00,36.0,16.0,30.18,SW,220,10.0,13.0,44,-99.99,,,-99.99,,2013-01-03 21:22:00,
2013-01-03 16:33:00,36.0,16.0,30.18,SW,220,10.0,13.0,44,-99.99,,,-99.99,,2013-01-03 21:33:00,
2013-01-03 16:44:00,36.0,16.0,30.18,SW,220,10.0,13.0,44,-99.99,,,-99.99,,2013-01-03 21:44:00,
2013-01-03 16:52:00,36.0,16.0,30.18,SW,220,10.0,13.0,44,-99.99,,,-99.99,,2013-01-03 21:52:00,
2013-01-03 17:00:00,36.0,17.0,30.19,SW,230,13.0,14.0,45,-99.99,,,-99.99,,2013-01-03 22:00:00,
2013-01-03 17:22:00,36.0,17.0,30.19,SW,230,13.0,14.0,45,-99.99,,,-99.99,,2013-01-03 22:22:00,
2013-01-03 17:32:00,36.0,17.0,30.19,SW,230,13.0,14.0,45,-99.99,,,-99.99,,2013-01-03 22:32:00,
2013-01-03 17:42:00,36.0,17.0,30.19,SW,230,13.0,14.0,45,-99.99,,,-99.99,,2013-01-03 22:42:00,
2013-01-03 17:52:00,36.0,17.0,30.19,SW,230,13.0,14.0,45,-99.99,,,-99.99,,2013-01-03 22:52:00,
2013-01-03 18:00:00,36.0,18.0,30.21,SW,230,11.0,13.0,48,-99.99,,,-99.99,,2013-01-03 23:00:00,
2013-01-03 18:12:00,36.0,18.0,30.21,SW,230,11.0,13.0,48,-99.99,,,-99.99,,2013-01-03 23:12:00,
2013-01-03 18:22:00,36.0,18.0,30.21,SW,230,11.0,13.0,48,-99.99,,,-99.99,,2013-01-03 23:22:00,
2013-01-03 18:32:00,36.0,18.0,30.21,SW,230,11.0,13.0,48,-99.99,,,-99.99,,2013-01-03 23:32:00,
2013-01-03 18:42:00,36.0,18.0,30.21,SW,230,11.0,13.0,48,-99.99,,,-99.99,,2013-01-03 23:42:00,
2013-01-03 18:52:00,36.0,18.0,30.21,SW,230,11.0,13.0,48,-99.99,,,-99.99,,2013-01-03 23:52:00,
2013-01-03 19:00:00,35.0,18.0,30.21,SW,220,13.0,14.0,49,-99.99,,,-99.99,,2013-01-04 00:00:00,
2013-01-03 19:22:00,35.0,18.0,30.21,SW,220,13.0,14.0,49,-99.99,,,-99.99,,2013-01-04 00:22:00,
2013-01-03 19:32:00,35.0,18.0,30.21,SW,220,13.0,14.0,49,-99.99,,,-99.99,,2013-01-04 00:32:00,
2013-01-03 19:42:00,35.0,18.0,30.21,SW,220,13.0,14.0,49,-99.99,,,-99.99,,2013-01-04 00:42:00,
2013-01-03 19:52:00,35.0,18.0,30.21,SW,220,13.0,14.0,49,-99.99,,,-99.99,,2013-01-04 00:52:00,
2013-01-03 20:00:00,35.0,20.0,30.20,SW,220,14.0,15.0,52,-99.99,,,-99.99,,2013-01-04 01:00:00,
2013-01-03 20:11:00,35.0,20.0,30.20,SW,220,14.0,15.0,52,-99.99,,,-99.99,,2013-01-04 01:11:00,
2013-01-03 20:22:00,35.0,20.0,30.20,SW,220,14.0,15.0,52,-99.99,,,-99.99,,2013-01-04 01:22:00,
2013-01-03 20:32:00,35.0,20.0,30.20,SW,220,14.0,15.0,52,-99.99,,,-99.99,,2013-01-04 01:32:00,
2013-01-03 20:42:00,35.0,20.0,30.20,SW,220,14.0,15.0,52,-99.99,,,-99.99,,2013-01-04 01:42:00,
2013-01-03 20:52:00,35.0,20.0,30.20,SW,220,14.0,15.0,52,-99.99,,,-99.99,,2013-01-04 01:52:00,
2013-01-03 21:00:00,35.0,20.0,30.20,SW,220,14.0,15.0,53,-99.99,,,-99.99,,2013-01-04 02:00:00,
2013-01-03 21:11:00,35.0,20.0,30.20,SW,220,14.0,15.0,53,-99.99,,,-99.99,,2013-01-04 02:11:00,
2013-01-03 21:22:00,35.0,20.0,30.20,SW,220,14.0,15.0,53,-99.99,,,-99.99,,2013-01-04 02:22:00,
2013-01-03 21:32:00,35.0,20.0,30.20,SW,220,14.0,15.0,53,-99.99,,,-99.99,,2013-01-04 02:32:00,
2013-01-03 21:42:00,35.0,20.0,30.20,SW,220,14.0,15.0,53,-99.99,,,-99.99,,2013-01-04 02:42:00,
2013-01-03 21:52:00,35.0,20.0,30.20,SW,220,14.0,15.0,53,-99.99,,,-99.99,,2013-01-04 02:52:00,
2013-01-03 22:00:00,35.0,20.0,30.21,SW,230,13.0,15.0,56,-99.99,,,-99.99,,2013-01-04 03:00:00,
2013-01-03 22:11:00,35.0,20.0,30.21,SW,230,13.0,15.0,56,-99.99,,,-99.99,,2013-01-04 03:11:00,
2013-01-03 22:22:00,35.0,20.0,30.21,SW,230,13.0,15.0,56,-99.99,,,-99.99,,2013-01-04 03:22:00,
2013-01-03 22:32:00,35.0,20.0,30.21,SW,230,13.0,15.0,56,-99.99,,,-99.99,,2013-01-04 03:32:00,
2013-01-03 22:42:00,35.0,20.0,30.21,SW,230,13.0,15.0,56,-99.99,,,-99.99,,2013-01-04 03:42:00,
2013-01-03 22:52:00,35.0,20.0,30.21,SW,230,13.0,15.0,56,-99.99,,,-99.99,,2013-01-04 03:52:00,
2013-01-03 23:00:00,34.0,21.0,30.21,WSW,240,15.0,17.0,58,-99.99,,,-99.99,,2013-01-04 04:00:00,
2013-01-03 23:22:00,34.0,21.0,30.21,WSW,240,15.0,17.0,58,-99.99,,,-99.99,,2013-01-04 04:22:00,
2013-01-03 23:32:00,34.0,21.0,30.21,WSW,240,15.0,17.0,58,-99.99,,,-99.99,,2013-01-04 04:32:00,
2013-01-03 23:42:00,34.0,21.0,30.21,WSW,240,15.0,17.0,58,-99.99,,,-99.99,,2013-01-04 04:42:00,
2013-01-03 23:52:00,34.0,21.0,30.21,WSW,240,15.0,17.0,58,-99.99,,,-99.99,,2013-01-04 04:52:00,